createdAt,value
2022-08-03T00:04:21.706Z,67.67
2022-08-03T00:09:36.043Z,68.12
2022-08-03T00:14:37.762Z,68.91
2022-08-03T00:19:39.437Z,68.78
2022-08-03T00:24:41.116Z,69.16
2022-08-03T00:30:00.094Z,70.01
2022-08-03T00:40:15.451Z,71.05
2022-08-03T00:45:21.399Z,71.80
2022-08-03T00:50:23.718Z,72.32
2022-08-03T00:55:25.478Z,72.61
2022-08-03T01:00:27.478Z,72.89
2022-08-03T01:05:29.384Z,73.73
2022-08-03T01:10:51.367Z,73.97
2022-08-03T01:16:09.808Z,74.37
2022-08-03T01:21:14.434Z,74.46
2022-08-03T01:26:25.334Z,75.29
2022-08-03T01:31:29.707Z,75.07
2022-08-03T01:36:39.449Z,75.45
2022-08-03T01:41:44.714Z,76.40
2022-08-03T01:46:49.168Z,76.73
2022-08-03T01:51:58.552Z,76.89
2022-08-03T01:57:06.951Z,77.33
2022-08-03T02:02:28.360Z,77.39
2022-08-03T02:07:30.645Z,77.78
2022-08-03T02:12:32.933Z,78.04
2022-08-03T02:17:39.563Z,78.72
2022-08-03T02:22:42.511Z,78.89
2022-08-03T02:27:52.117Z,78.08
2022-08-03T02:32:55.488Z,78.24
2022-08-03T02:37:59.779Z,78.35
2022-08-03T02:43:03.888Z,78.32
2022-08-03T02:48:05.680Z,78.00
2022-08-03T02:53:07.351Z,78.38
2022-08-03T02:58:08.998Z,77.74
2022-08-03T03:03:10.686Z,78.44
2022-08-03T03:08:18.777Z,78.56
2022-08-03T03:13:23.086Z,78.62
2022-08-03T03:18:24.949Z,79.02
2022-08-03T03:23:27.114Z,79.56
2022-08-03T03:28:28.954Z,79.65
2022-08-03T03:33:30.644Z,78.98
2022-08-03T03:38:32.654Z,79.33
2022-08-03T03:43:34.461Z,79.10
2022-08-03T03:48:36.201Z,79.89
2022-08-03T03:53:37.891Z,79.78
2022-08-03T03:58:39.685Z,80.14
2022-08-03T04:03:41.372Z,80.22
2022-08-03T04:09:01.634Z,79.92
2022-08-03T04:14:12.757Z,80.43
2022-08-03T04:19:22.593Z,80.14
2022-08-03T04:24:27.064Z,80.54
2022-08-03T04:29:29.205Z,80.42
2022-08-03T04:34:30.903Z,80.18
2022-08-03T04:39:32.595Z,79.93
2022-08-03T04:44:42.114Z,79.90
2022-08-03T04:49:43.897Z,79.90
2022-08-03T04:54:50.482Z,80.00
2022-08-03T05:00:01.362Z,79.56
2022-08-03T05:05:04.172Z,79.64
2022-08-03T05:10:14.916Z,78.93
2022-08-03T05:15:17.955Z,78.75
2022-08-03T05:20:19.619Z,77.65
2022-08-03T05:25:23.337Z,76.96
2022-08-03T05:30:33.611Z,75.15
2022-08-03T05:36:01.124Z,74.60
2022-08-03T05:41:22.723Z,72.60
2022-08-03T05:46:20.924Z,71.71
2022-08-03T05:51:22.648Z,71.07
2022-08-03T05:56:27.177Z,69.11
2022-08-03T06:01:29.218Z,68.39
2022-08-03T06:06:32.384Z,67.44
2022-08-03T06:11:34.349Z,66.62
2022-08-03T06:16:36.312Z,65.05
2022-08-03T06:21:38.015Z,63.38
2022-08-03T06:26:41.603Z,62.42
2022-08-03T06:31:43.318Z,61.73
2022-08-03T06:36:48.397Z,61.23
2022-08-03T06:41:50.141Z,59.69
2022-08-03T06:46:52.986Z,59.32
2022-08-03T06:52:03.131Z,58.86
2022-08-03T06:57:06.471Z,59.49
2022-08-03T07:02:09.659Z,57.63
2022-08-03T07:07:11.379Z,57.65
2022-08-03T07:12:13.231Z,56.70
2022-08-03T07:17:15.041Z,56.92
2022-08-03T07:22:16.925Z,56.85
2022-08-03T07:27:18.736Z,55.72
2022-08-03T07:32:20.408Z,55.53
2022-08-03T07:37:22.104Z,55.35
2022-08-03T07:42:23.947Z,55.16
2022-08-03T07:47:34.774Z,55.07
2022-08-03T07:52:49.568Z,54.90
2022-08-03T07:58:04.226Z,54.57
2022-08-03T08:03:05.930Z,54.45
2022-08-03T08:08:07.623Z,53.81
2022-08-03T08:13:09.347Z,54.23
2022-08-03T08:18:11.014Z,53.73
2022-08-03T08:23:31.927Z,53.17
2022-08-03T08:28:34.448Z,53.39
2022-08-03T08:38:57.884Z,50.90
2022-08-03T08:44:00.193Z,51.20
2022-08-03T08:49:04.695Z,50.71
2022-08-03T08:54:07.405Z,50.27
2022-08-03T08:59:09.097Z,50.18
2022-08-03T09:04:10.775Z,50.16
2022-08-03T09:10:00.094Z,49.76
2022-08-03T09:14:39.393Z,49.20
2022-08-03T09:20:03.254Z,48.45
2022-08-03T09:25:23.882Z,48.58
2022-08-03T09:30:34.110Z,48.47
2022-08-03T09:35:59.023Z,48.10
2022-08-03T09:41:01.111Z,47.06
2022-08-03T09:46:04.169Z,47.29
2022-08-03T09:51:13.044Z,46.96
2022-08-03T09:56:36.094Z,46.89
2022-08-03T10:01:41.601Z,46.12
2022-08-03T10:06:44.521Z,46.61
2022-08-03T10:11:47.479Z,46.00
2022-08-03T10:16:49.353Z,45.73
2022-08-03T10:21:55.523Z,46.04
2022-08-03T10:27:04.306Z,44.12
2022-08-03T10:32:27.204Z,44.54
2022-08-03T10:37:30.404Z,44.56
2022-08-03T10:42:32.130Z,44.31
2022-08-03T10:47:34.383Z,44.12
2022-08-03T10:52:41.282Z,43.32
2022-08-03T10:57:48.841Z,42.66
2022-08-03T11:03:12.546Z,42.33
2022-08-03T11:08:30.890Z,42.43
2022-08-03T11:13:33.881Z,41.70
2022-08-03T11:18:35.925Z,40.75
2022-08-03T11:24:04.598Z,39.11
2022-08-03T11:29:29.231Z,38.95
2022-08-03T11:34:31.190Z,38.97
2022-08-03T11:39:39.643Z,39.68
2022-08-03T11:44:41.327Z,38.74
2022-08-03T11:49:50.212Z,38.50
2022-08-03T11:54:57.181Z,37.48
2022-08-03T11:59:59.235Z,36.98
2022-08-03T12:05:01.443Z,37.34
2022-08-03T12:10:07.427Z,36.17
2022-08-03T12:15:09.555Z,35.62
2022-08-03T12:20:14.373Z,35.64
2022-08-03T12:25:25.805Z,34.12
2022-08-03T12:30:41.633Z,33.21
2022-08-03T12:35:52.130Z,33.62
2022-08-03T12:41:02.407Z,33.80
2022-08-03T12:46:11.154Z,34.30
2022-08-03T12:51:13.112Z,33.95
2022-08-03T12:56:14.842Z,34.34
2022-08-03T13:01:16.738Z,34.98
2022-08-03T13:06:25.031Z,35.31
2022-08-03T13:11:57.631Z,34.62
2022-08-03T13:16:49.193Z,33.37
2022-08-03T13:22:02.122Z,33.44
2022-08-03T13:28:02.472Z,31.24
2022-08-03T13:32:29.112Z,30.92
2022-08-03T13:37:32.261Z,30.96
2022-08-03T13:42:34.817Z,30.70
2022-08-03T13:47:37.944Z,29.11
2022-08-03T13:52:39.868Z,29.59
2022-08-03T13:58:05.235Z,29.19
2022-08-03T14:03:10.788Z,29.57
2022-08-03T14:08:15.248Z,29.79
2022-08-03T14:13:17.939Z,30.87
2022-08-03T14:18:28.640Z,30.46
2022-08-03T14:23:35.947Z,30.55
2022-08-03T14:28:37.700Z,30.35
2022-08-03T14:33:39.662Z,29.11
2022-08-03T14:38:41.341Z,30.07
2022-08-03T14:44:01.326Z,30.40
2022-08-03T14:50:30.260Z,30.47
2022-08-03T14:54:26.898Z,29.60
2022-08-03T14:59:28.585Z,29.55
2022-08-03T15:04:50.264Z,28.74
2022-08-03T15:09:51.980Z,29.41
2022-08-03T15:14:53.673Z,28.83
2022-08-03T15:20:01.028Z,29.23
2022-08-03T15:26:30.330Z,28.58
2022-08-03T15:30:28.037Z,29.73
2022-08-03T15:35:29.703Z,29.16
2022-08-03T15:40:31.473Z,28.16
2022-08-03T15:45:35.339Z,28.12
2022-08-03T15:50:38.135Z,29.52
2022-08-03T15:55:40.400Z,30.28
2022-08-03T16:00:42.195Z,30.19
2022-08-03T16:05:43.995Z,30.85
2022-08-03T16:10:46.783Z,31.29
2022-08-03T16:15:50.189Z,31.42
2022-08-03T16:20:51.903Z,32.38
2022-08-03T16:25:53.743Z,31.88
2022-08-03T16:30:55.438Z,31.98
2022-08-03T16:35:57.157Z,31.86
2022-08-03T16:40:58.906Z,31.98
2022-08-03T16:46:00.582Z,32.12
2022-08-03T16:51:02.917Z,33.06
2022-08-03T16:56:09.852Z,33.64
2022-08-03T17:01:24.128Z,33.85
2022-08-03T17:06:26.673Z,33.90
2022-08-03T17:11:44.031Z,34.43
2022-08-03T17:16:52.922Z,34.29
2022-08-03T17:22:17.615Z,35.23
2022-08-03T17:28:49.565Z,35.42
2022-08-03T17:32:56.988Z,35.03
2022-08-03T17:38:03.341Z,35.33
2022-08-03T17:44:14.248Z,36.04
2022-08-03T17:48:31.845Z,35.95
2022-08-03T17:53:39.193Z,35.96
2022-08-03T17:58:43.729Z,36.87
2022-08-03T18:03:59.092Z,36.51
2022-08-03T18:09:05.231Z,36.59
2022-08-03T18:14:26.478Z,36.99
2022-08-03T18:20:03.605Z,37.44
2022-08-03T18:24:50.891Z,38.25
2022-08-03T18:29:53.445Z,40.12
2022-08-03T18:34:58.647Z,39.12
2022-08-03T18:40:00.766Z,39.51
2022-08-03T18:45:15.056Z,40.23
2022-08-03T18:50:37.122Z,41.02
2022-08-03T18:56:11.002Z,42.25
2022-08-03T19:01:59.035Z,43.67
2022-08-03T19:06:56.603Z,43.58
2022-08-03T19:12:12.764Z,44.57
2022-08-03T19:17:21.781Z,45.24
2022-08-03T19:22:27.119Z,45.31
2022-08-03T19:27:29.888Z,46.70
2022-08-03T19:32:32.494Z,47.72
2022-08-03T19:37:39.810Z,48.04
2022-08-03T19:42:44.668Z,48.77
2022-08-03T19:47:51.387Z,50.28
2022-08-03T19:52:53.214Z,50.99
2022-08-03T19:57:54.913Z,51.73
2022-08-03T20:02:59.041Z,52.70
2022-08-03T20:08:02.652Z,53.71
2022-08-03T20:13:04.329Z,54.77
2022-08-03T20:18:06.095Z,58.24
2022-08-03T20:23:18.992Z,59.36
2022-08-03T20:28:26.696Z,60.52
2022-08-03T20:34:20.041Z,61.18
2022-08-03T20:39:22.078Z,61.14
2022-08-03T20:44:25.692Z,60.82
2022-08-03T20:49:27.728Z,61.69
2022-08-03T20:54:30.942Z,61.66
2022-08-03T20:59:46.867Z,61.86
2022-08-03T21:04:49.540Z,63.25
2022-08-03T21:09:52.837Z,63.02
2022-08-03T21:15:02.758Z,62.70
2022-08-03T21:20:08.783Z,65.85
2022-08-03T21:25:10.665Z,67.85
2022-08-03T21:30:12.638Z,68.43
2022-08-03T21:35:14.496Z,68.58
2022-08-03T21:40:16.527Z,68.01
2022-08-03T21:45:18.387Z,68.25
2022-08-03T21:50:20.148Z,68.28
2022-08-03T21:55:21.923Z,68.26
2022-08-03T22:00:23.802Z,68.36
2022-08-03T22:05:29.025Z,69.04
2022-08-03T22:10:44.678Z,68.92
2022-08-03T22:15:47.670Z,69.18
2022-08-03T22:20:51.120Z,69.84
2022-08-03T22:25:53.106Z,70.40
2022-08-03T22:30:54.813Z,70.87
2022-08-03T22:35:57.272Z,71.14
2022-08-03T22:40:58.968Z,70.45
2022-08-03T22:46:09.554Z,70.90
2022-08-03T22:51:15.096Z,71.21
2022-08-03T22:56:16.800Z,71.77
2022-08-03T23:01:20.143Z,72.34
2022-08-03T23:06:21.822Z,72.86
2022-08-03T23:11:23.533Z,72.69
2022-08-03T23:16:28.601Z,72.35
2022-08-03T23:21:53.091Z,72.63
2022-08-03T23:26:53.125Z,73.20
2022-08-03T23:31:55.025Z,73.90
2022-08-03T23:36:56.716Z,74.32
2022-08-03T23:41:58.430Z,75.21
2022-08-03T23:47:02.118Z,75.97
2022-08-03T23:52:34.252Z,76.62
2022-08-03T23:57:51.303Z,76.88
